sensor_id;sensor_type;location;lat;lon;timestamp;P1;durP1;ratioP1;P2;durP2;ratioP2
3297;SDS011;1661;53.572;10.174;2022-09-27T00:01:39;4.83;;;4.00;;
3297;SDS011;1661;53.572;10.174;2022-09-27T00:04:09;4.67;;;3.90;;
3297;SDS011;1661;53.572;10.174;2022-09-27T00:06:36;4.13;;;3.83;;
3297;SDS011;1661;53.572;10.174;2022-09-27T00:09:03;4.90;;;4.40;;
3297;SDS011;1661;53.572;10.174;2022-09-27T00:11:31;3.87;;;3.57;;
3297;SDS011;1661;53.572;10.174;2022-09-27T00:14:00;3.83;;;3.43;;
3297;SDS011;1661;53.572;10.174;2022-09-27T00:16:30;5.17;;;4.67;;
3297;SDS011;1661;53.572;10.174;2022-09-27T00:18:59;4.63;;;4.10;;
3297;SDS011;1661;53.572;10.174;2022-09-27T00:21:27;4.23;;;3.90;;
3297;SDS011;1661;53.572;10.174;2022-09-27T00:23:56;4.50;;;3.97;;
3297;SDS011;1661;53.572;10.174;2022-09-27T00:26:23;5.90;;;3.63;;
3297;SDS011;1661;53.572;10.174;2022-09-27T00:28:51;4.17;;;3.87;;
3297;SDS011;1661;53.572;10.174;2022-09-27T00:31:18;3.60;;;3.30;;
3297;SDS011;1661;53.572;10.174;2022-09-27T00:33:49;7.70;;;3.77;;
3297;SDS011;1661;53.572;10.174;2022-09-27T00:36:18;3.40;;;3.20;;
3297;SDS011;1661;53.572;10.174;2022-09-27T00:38:46;4.57;;;3.53;;
3297;SDS011;1661;53.572;10.174;2022-09-27T00:41:14;4.50;;;4.20;;
3297;SDS011;1661;53.572;10.174;2022-09-27T00:43:44;5.70;;;4.53;;
3297;SDS011;1661;53.572;10.174;2022-09-27T00:46:17;4.17;;;3.90;;
3297;SDS011;1661;53.572;10.174;2022-09-27T00:48:48;4.10;;;3.70;;
3297;SDS011;1661;53.572;10.174;2022-09-27T00:51:24;6.70;;;3.70;;
3297;SDS011;1661;53.572;10.174;2022-09-27T00:53:52;4.67;;;4.27;;
3297;SDS011;1661;53.572;10.174;2022-09-27T00:56:22;4.13;;;3.77;;
3297;SDS011;1661;53.572;10.174;2022-09-27T00:58:53;4.90;;;3.67;;
3297;SDS011;1661;53.572;10.174;2022-09-27T01:01:22;4.23;;;3.67;;
3297;SDS011;1661;53.572;10.174;2022-09-27T01:03:52;4.07;;;3.77;;
3297;SDS011;1661;53.572;10.174;2022-09-27T01:06:24;4.10;;;3.70;;
3297;SDS011;1661;53.572;10.174;2022-09-27T01:08:51;4.50;;;4.10;;
3297;SDS011;1661;53.572;10.174;2022-09-27T01:11:21;4.70;;;4.30;;
3297;SDS011;1661;53.572;10.174;2022-09-27T01:14:01;4.50;;;4.10;;
3297;SDS011;1661;53.572;10.174;2022-09-27T01:16:38;4.87;;;4.47;;
3297;SDS011;1661;53.572;10.174;2022-09-27T01:19:13;4.50;;;4.20;;
3297;SDS011;1661;53.572;10.174;2022-09-27T01:21:51;3.63;;;3.40;;
3297;SDS011;1661;53.572;10.174;2022-09-27T01:24:29;3.63;;;3.40;;
3297;SDS011;1661;53.572;10.174;2022-09-27T01:30:31;3.80;;;3.40;;
3297;SDS011;1661;53.572;10.174;2022-09-27T01:33:13;4.73;;;4.43;;
3297;SDS011;1661;53.572;10.174;2022-09-27T01:35:57;4.47;;;4.07;;
3297;SDS011;1661;53.572;10.174;2022-09-27T01:38:33;5.40;;;4.90;;
3297;SDS011;1661;53.572;10.174;2022-09-27T01:41:12;4.93;;;4.43;;
3297;SDS011;1661;53.572;10.174;2022-09-27T01:43:53;4.83;;;3.97;;
3297;SDS011;1661;53.572;10.174;2022-09-27T01:46:25;4.93;;;4.43;;
3297;SDS011;1661;53.572;10.174;2022-09-27T01:48:54;5.07;;;4.20;;
3297;SDS011;1661;53.572;10.174;2022-09-27T01:51:27;4.97;;;4.67;;
3297;SDS011;1661;53.572;10.174;2022-09-27T01:53:57;5.50;;;3.30;;
3297;SDS011;1661;53.572;10.174;2022-09-27T01:56:29;4.63;;;3.70;;
3297;SDS011;1661;53.572;10.174;2022-09-27T01:59:01;4.87;;;4.40;;
3297;SDS011;1661;53.572;10.174;2022-09-27T02:01:32;4.50;;;4.20;;
3297;SDS011;1661;53.572;10.174;2022-09-27T02:04:01;5.13;;;4.00;;
3297;SDS011;1661;53.572;10.174;2022-09-27T02:06:32;8.40;;;4.87;;
3297;SDS011;1661;53.572;10.174;2022-09-27T02:09:01;5.40;;;4.77;;
3297;SDS011;1661;53.572;10.174;2022-09-27T02:11:32;5.40;;;5.00;;
3297;SDS011;1661;53.572;10.174;2022-09-27T02:14:02;4.57;;;4.27;;
3297;SDS011;1661;53.572;10.174;2022-09-27T02:16:37;5.10;;;4.67;;
3297;SDS011;1661;53.572;10.174;2022-09-27T02:19:13;4.57;;;4.27;;
3297;SDS011;1661;53.572;10.174;2022-09-27T02:21:52;8.20;;;4.20;;
3297;SDS011;1661;53.572;10.174;2022-09-27T02:24:31;6.57;;;6.03;;
3297;SDS011;1661;53.572;10.174;2022-09-27T02:27:06;5.40;;;5.00;;
3297;SDS011;1661;53.572;10.174;2022-09-27T02:29:38;4.70;;;4.37;;
3297;SDS011;1661;53.572;10.174;2022-09-27T02:32:12;4.07;;;3.87;;
3297;SDS011;1661;53.572;10.174;2022-09-27T02:34:39;5.27;;;4.87;;
3297;SDS011;1661;53.572;10.174;2022-09-27T02:37:09;4.80;;;4.50;;
3297;SDS011;1661;53.572;10.174;2022-09-27T02:39:36;6.10;;;4.97;;
3297;SDS011;1661;53.572;10.174;2022-09-27T02:42:03;5.00;;;4.53;;
3297;SDS011;1661;53.572;10.174;2022-09-27T02:44:31;4.97;;;4.20;;
3297;SDS011;1661;53.572;10.174;2022-09-27T02:50:07;5.07;;;3.97;;
3297;SDS011;1661;53.572;10.174;2022-09-27T02:52:52;5.27;;;4.87;;
3297;SDS011;1661;53.572;10.174;2022-09-27T02:55:27;5.37;;;4.87;;
3297;SDS011;1661;53.572;10.174;2022-09-27T02:58:03;4.43;;;4.13;;
3297;SDS011;1661;53.572;10.174;2022-09-27T03:00:45;5.00;;;4.60;;
3297;SDS011;1661;53.572;10.174;2022-09-27T03:03:19;4.80;;;4.30;;
3297;SDS011;1661;53.572;10.174;2022-09-27T03:05:52;4.60;;;4.20;;
3297;SDS011;1661;53.572;10.174;2022-09-27T03:08:24;5.80;;;4.90;;
3297;SDS011;1661;53.572;10.174;2022-09-27T03:10:51;4.53;;;4.17;;
3297;SDS011;1661;53.572;10.174;2022-09-27T03:13:18;4.50;;;4.17;;
3297;SDS011;1661;53.572;10.174;2022-09-27T03:15:45;4.43;;;4.13;;
3297;SDS011;1661;53.572;10.174;2022-09-27T03:18:11;6.73;;;6.10;;
3297;SDS011;1661;53.572;10.174;2022-09-27T03:20:40;8.03;;;7.17;;
3297;SDS011;1661;53.572;10.174;2022-09-27T03:23:06;6.87;;;6.17;;
3297;SDS011;1661;53.572;10.174;2022-09-27T03:25:33;7.30;;;6.70;;
3297;SDS011;1661;53.572;10.174;2022-09-27T03:28:00;7.13;;;6.50;;
3297;SDS011;1661;53.572;10.174;2022-09-27T03:30:27;5.60;;;5.30;;
3297;SDS011;1661;53.572;10.174;2022-09-27T03:32:54;6.97;;;6.27;;
3297;SDS011;1661;53.572;10.174;2022-09-27T03:35:21;7.90;;;7.30;;
3297;SDS011;1661;53.572;10.174;2022-09-27T03:37:49;9.20;;;8.37;;
3297;SDS011;1661;53.572;10.174;2022-09-27T03:40:16;14.87;;;8.87;;
3297;SDS011;1661;53.572;10.174;2022-09-27T03:42:42;7.00;;;6.50;;
3297;SDS011;1661;53.572;10.174;2022-09-27T03:45:09;5.60;;;5.10;;
3297;SDS011;1661;53.572;10.174;2022-09-27T03:47:38;5.73;;;5.27;;
3297;SDS011;1661;53.572;10.174;2022-09-27T03:50:06;5.87;;;5.40;;
3297;SDS011;1661;53.572;10.174;2022-09-27T03:52:34;4.10;;;3.80;;
3297;SDS011;1661;53.572;10.174;2022-09-27T03:55:02;4.83;;;4.43;;
3297;SDS011;1661;53.572;10.174;2022-09-27T03:57:30;4.70;;;4.30;;
3297;SDS011;1661;53.572;10.174;2022-09-27T03:59:57;5.40;;;5.07;;
3297;SDS011;1661;53.572;10.174;2022-09-27T04:02:24;6.50;;;5.87;;
3297;SDS011;1661;53.572;10.174;2022-09-27T04:04:51;5.57;;;5.07;;
3297;SDS011;1661;53.572;10.174;2022-09-27T04:07:18;7.00;;;4.17;;
3297;SDS011;1661;53.572;10.174;2022-09-27T04:09:45;4.93;;;4.57;;
3297;SDS011;1661;53.572;10.174;2022-09-27T04:12:13;5.83;;;5.33;;
3297;SDS011;1661;53.572;10.174;2022-09-27T04:14:40;4.83;;;4.53;;
3297;SDS011;1661;53.572;10.174;2022-09-27T04:17:07;4.57;;;4.27;;
3297;SDS011;1661;53.572;10.174;2022-09-27T04:19:33;5.93;;;5.33;;
3297;SDS011;1661;53.572;10.174;2022-09-27T04:22:00;6.10;;;5.60;;
3297;SDS011;1661;53.572;10.174;2022-09-27T04:24:27;5.80;;;5.30;;
3297;SDS011;1661;53.572;10.174;2022-09-27T04:26:56;5.80;;;4.80;;
3297;SDS011;1661;53.572;10.174;2022-09-27T04:29:25;5.90;;;5.50;;
3297;SDS011;1661;53.572;10.174;2022-09-27T04:31:52;6.83;;;5.70;;
3297;SDS011;1661;53.572;10.174;2022-09-27T04:34:19;6.10;;;5.70;;
3297;SDS011;1661;53.572;10.174;2022-09-27T04:37:06;6.30;;;5.70;;
3297;SDS011;1661;53.572;10.174;2022-09-27T04:39:32;6.03;;;5.53;;
3297;SDS011;1661;53.572;10.174;2022-09-27T04:42:00;6.57;;;6.07;;
3297;SDS011;1661;53.572;10.174;2022-09-27T04:44:29;7.47;;;6.77;;
3297;SDS011;1661;53.572;10.174;2022-09-27T04:46:55;5.80;;;5.27;;
3297;SDS011;1661;53.572;10.174;2022-09-27T04:49:22;6.10;;;5.70;;
3297;SDS011;1661;53.572;10.174;2022-09-27T04:51:49;4.87;;;4.47;;
3297;SDS011;1661;53.572;10.174;2022-09-27T04:54:16;5.90;;;5.40;;
3297;SDS011;1661;53.572;10.174;2022-09-27T04:56:42;4.67;;;4.27;;
3297;SDS011;1661;53.572;10.174;2022-09-27T04:59:09;6.13;;;5.53;;
3297;SDS011;1661;53.572;10.174;2022-09-27T05:01:37;5.77;;;5.37;;
3297;SDS011;1661;53.572;10.174;2022-09-27T05:04:04;5.27;;;4.97;;
3297;SDS011;1661;53.572;10.174;2022-09-27T05:06:31;6.73;;;6.23;;
3297;SDS011;1661;53.572;10.174;2022-09-27T05:08:58;6.10;;;5.60;;
3297;SDS011;1661;53.572;10.174;2022-09-27T05:11:24;7.70;;;7.03;;
3297;SDS011;1661;53.572;10.174;2022-09-27T05:13:51;5.63;;;5.13;;
3297;SDS011;1661;53.572;10.174;2022-09-27T05:16:18;6.67;;;6.07;;
3297;SDS011;1661;53.572;10.174;2022-09-27T05:18:46;5.53;;;5.13;;
3297;SDS011;1661;53.572;10.174;2022-09-27T05:21:13;6.57;;;6.07;;
3297;SDS011;1661;53.572;10.174;2022-09-27T05:23:40;4.83;;;4.50;;
3297;SDS011;1661;53.572;10.174;2022-09-27T05:26:06;6.70;;;6.10;;
3297;SDS011;1661;53.572;10.174;2022-09-27T05:28:33;6.10;;;5.70;;
3297;SDS011;1661;53.572;10.174;2022-09-27T05:31:00;5.67;;;5.27;;
3297;SDS011;1661;53.572;10.174;2022-09-27T05:33:27;6.20;;;5.80;;
3297;SDS011;1661;53.572;10.174;2022-09-27T05:35:55;6.47;;;6.03;;
3297;SDS011;1661;53.572;10.174;2022-09-27T05:38:23;6.40;;;6.00;;
3297;SDS011;1661;53.572;10.174;2022-09-27T05:40:50;6.37;;;5.97;;
3297;SDS011;1661;53.572;10.174;2022-09-27T05:43:17;6.20;;;5.80;;
3297;SDS011;1661;53.572;10.174;2022-09-27T05:45:44;6.70;;;6.20;;
3297;SDS011;1661;53.572;10.174;2022-09-27T05:48:11;5.87;;;5.47;;
3297;SDS011;1661;53.572;10.174;2022-09-27T05:50:38;7.53;;;6.80;;
3297;SDS011;1661;53.572;10.174;2022-09-27T05:53:07;7.23;;;6.63;;
3297;SDS011;1661;53.572;10.174;2022-09-27T05:55:34;8.87;;;8.07;;
3297;SDS011;1661;53.572;10.174;2022-09-27T05:58:02;8.93;;;8.20;;
3297;SDS011;1661;53.572;10.174;2022-09-27T06:00:31;10.33;;;7.87;;
3297;SDS011;1661;53.572;10.174;2022-09-27T06:02:59;8.07;;;7.47;;
3297;SDS011;1661;53.572;10.174;2022-09-27T06:05:29;9.33;;;8.43;;
3297;SDS011;1661;53.572;10.174;2022-09-27T06:08:00;9.73;;;8.80;;
3297;SDS011;1661;53.572;10.174;2022-09-27T06:10:30;9.17;;;8.33;;
3297;SDS011;1661;53.572;10.174;2022-09-27T06:12:58;9.80;;;8.80;;
3297;SDS011;1661;53.572;10.174;2022-09-27T06:15:26;10.37;;;9.37;;
3297;SDS011;1661;53.572;10.174;2022-09-27T06:17:53;10.40;;;8.97;;
3297;SDS011;1661;53.572;10.174;2022-09-27T06:20:20;10.00;;;9.07;;
3297;SDS011;1661;53.572;10.174;2022-09-27T06:22:47;9.53;;;8.60;;
3297;SDS011;1661;53.572;10.174;2022-09-27T06:25:14;9.77;;;8.77;;
3297;SDS011;1661;53.572;10.174;2022-09-27T06:27:42;11.00;;;9.13;;
3297;SDS011;1661;53.572;10.174;2022-09-27T06:30:09;15.03;;;11.50;;
3297;SDS011;1661;53.572;10.174;2022-09-27T06:32:37;14.27;;;12.00;;
3297;SDS011;1661;53.572;10.174;2022-09-27T06:35:04;13.00;;;11.67;;
3297;SDS011;1661;53.572;10.174;2022-09-27T06:37:31;14.27;;;11.27;;
3297;SDS011;1661;53.572;10.174;2022-09-27T06:39:58;11.87;;;10.70;;
3297;SDS011;1661;53.572;10.174;2022-09-27T06:42:25;15.13;;;9.53;;
3297;SDS011;1661;53.572;10.174;2022-09-27T06:44:54;10.93;;;9.23;;
3297;SDS011;1661;53.572;10.174;2022-09-27T06:47:21;13.60;;;9.53;;
3297;SDS011;1661;53.572;10.174;2022-09-27T06:49:49;11.83;;;10.20;;
3297;SDS011;1661;53.572;10.174;2022-09-27T06:52:16;12.80;;;9.13;;
3297;SDS011;1661;53.572;10.174;2022-09-27T06:54:42;11.43;;;10.23;;
3297;SDS011;1661;53.572;10.174;2022-09-27T06:57:09;11.97;;;8.90;;
3297;SDS011;1661;53.572;10.174;2022-09-27T06:59:57;13.63;;;9.33;;
3297;SDS011;1661;53.572;10.174;2022-09-27T07:02:41;9.17;;;8.27;;
3297;SDS011;1661;53.572;10.174;2022-09-27T07:05:08;8.97;;;8.17;;
3297;SDS011;1661;53.572;10.174;2022-09-27T07:07:35;11.93;;;8.70;;
3297;SDS011;1661;53.572;10.174;2022-09-27T07:10:02;16.07;;;8.03;;
3297;SDS011;1661;53.572;10.174;2022-09-27T07:12:29;14.53;;;7.60;;
3297;SDS011;1661;53.572;10.174;2022-09-27T07:14:58;6.97;;;6.37;;
3297;SDS011;1661;53.572;10.174;2022-09-27T07:17:25;7.77;;;6.83;;
3297;SDS011;1661;53.572;10.174;2022-09-27T07:19:52;7.37;;;6.67;;
3297;SDS011;1661;53.572;10.174;2022-09-27T07:22:19;6.23;;;5.60;;
3297;SDS011;1661;53.572;10.174;2022-09-27T07:24:46;6.17;;;5.50;;
3297;SDS011;1661;53.572;10.174;2022-09-27T07:27:13;8.33;;;4.80;;
3297;SDS011;1661;53.572;10.174;2022-09-27T07:29:42;7.73;;;5.13;;
3297;SDS011;1661;53.572;10.174;2022-09-27T07:32:10;5.93;;;4.63;;
3297;SDS011;1661;53.572;10.174;2022-09-27T07:34:37;19.90;;;4.73;;
3297;SDS011;1661;53.572;10.174;2022-09-27T07:37:03;3.90;;;3.60;;
3297;SDS011;1661;53.572;10.174;2022-09-27T07:39:30;20.50;;;5.13;;
3297;SDS011;1661;53.572;10.174;2022-09-27T07:41:57;5.93;;;3.00;;
3297;SDS011;1661;53.572;10.174;2022-09-27T07:44:24;5.63;;;2.63;;
3297;SDS011;1661;53.572;10.174;2022-09-27T07:46:51;8.20;;;2.80;;
3297;SDS011;1661;53.572;10.174;2022-09-27T07:49:19;3.20;;;1.90;;
3297;SDS011;1661;53.572;10.174;2022-09-27T07:51:46;2.43;;;2.13;;
3297;SDS011;1661;53.572;10.174;2022-09-27T07:54:13;1.73;;;1.47;;
3297;SDS011;1661;53.572;10.174;2022-09-27T07:56:39;1.60;;;1.40;;
3297;SDS011;1661;53.572;10.174;2022-09-27T07:59:06;2.77;;;1.50;;
3297;SDS011;1661;53.572;10.174;2022-09-27T08:01:33;1.10;;;0.90;;
3297;SDS011;1661;53.572;10.174;2022-09-27T08:04:00;2.30;;;1.93;;
3297;SDS011;1661;53.572;10.174;2022-09-27T08:06:28;2.90;;;1.93;;
3297;SDS011;1661;53.572;10.174;2022-09-27T08:08:55;7.30;;;4.30;;
3297;SDS011;1661;53.572;10.174;2022-09-27T08:11:22;3.20;;;2.70;;
3297;SDS011;1661;53.572;10.174;2022-09-27T08:13:49;2.00;;;1.87;;
3297;SDS011;1661;53.572;10.174;2022-09-27T08:16:17;4.20;;;1.97;;
3297;SDS011;1661;53.572;10.174;2022-09-27T08:18:44;7.13;;;2.07;;
3297;SDS011;1661;53.572;10.174;2022-09-27T08:21:10;1.60;;;1.50;;
3297;SDS011;1661;53.572;10.174;2022-09-27T08:23:38;3.33;;;2.03;;
3297;SDS011;1661;53.572;10.174;2022-09-27T08:26:06;1.40;;;1.30;;
3297;SDS011;1661;53.572;10.174;2022-09-27T08:28:33;2.67;;;1.70;;
3297;SDS011;1661;53.572;10.174;2022-09-27T08:31:00;1.50;;;1.33;;
3297;SDS011;1661;53.572;10.174;2022-09-27T08:33:27;1.90;;;1.80;;
3297;SDS011;1661;53.572;10.174;2022-09-27T08:35:53;1.93;;;1.83;;
3297;SDS011;1661;53.572;10.174;2022-09-27T08:38:20;1.90;;;1.80;;
3297;SDS011;1661;53.572;10.174;2022-09-27T08:40:50;2.33;;;1.90;;
3297;SDS011;1661;53.572;10.174;2022-09-27T08:43:22;5.30;;;2.70;;
3297;SDS011;1661;53.572;10.174;2022-09-27T08:46:02;4.33;;;2.40;;
3297;SDS011;1661;53.572;10.174;2022-09-27T08:48:35;2.43;;;2.20;;
3297;SDS011;1661;53.572;10.174;2022-09-27T08:51:03;13.13;;;3.87;;
3297;SDS011;1661;53.572;10.174;2022-09-27T08:53:32;2.57;;;2.37;;
3297;SDS011;1661;53.572;10.174;2022-09-27T08:56:05;7.80;;;2.67;;
3297;SDS011;1661;53.572;10.174;2022-09-27T08:58:34;4.83;;;1.90;;
3297;SDS011;1661;53.572;10.174;2022-09-27T09:01:05;2.23;;;1.90;;
3297;SDS011;1661;53.572;10.174;2022-09-27T09:03:38;5.23;;;2.53;;
3297;SDS011;1661;53.572;10.174;2022-09-27T09:06:10;2.90;;;2.00;;
3297;SDS011;1661;53.572;10.174;2022-09-27T09:08:46;2.57;;;2.37;;
3297;SDS011;1661;53.572;10.174;2022-09-27T09:11:26;2.17;;;1.93;;
3297;SDS011;1661;53.572;10.174;2022-09-27T09:14:27;3.07;;;2.07;;
3297;SDS011;1661;53.572;10.174;2022-09-27T09:17:19;3.60;;;2.10;;
3297;SDS011;1661;53.572;10.174;2022-09-27T09:20:15;17.60;;;3.57;;
3297;SDS011;1661;53.572;10.174;2022-09-27T09:22:52;8.37;;;3.03;;
3297;SDS011;1661;53.572;10.174;2022-09-27T09:25:44;3.10;;;1.97;;
3297;SDS011;1661;53.572;10.174;2022-09-27T09:28:25;10.77;;;2.33;;
3297;SDS011;1661;53.572;10.174;2022-09-27T09:31:00;2.57;;;2.37;;
3297;SDS011;1661;53.572;10.174;2022-09-27T09:33:33;2.80;;;1.77;;
3297;SDS011;1661;53.572;10.174;2022-09-27T09:36:04;2.33;;;2.13;;
3297;SDS011;1661;53.572;10.174;2022-09-27T09:38:40;3.30;;;2.07;;
3297;SDS011;1661;53.572;10.174;2022-09-27T09:41:14;2.60;;;1.80;;
3297;SDS011;1661;53.572;10.174;2022-09-27T09:43:47;2.60;;;2.00;;
3297;SDS011;1661;53.572;10.174;2022-09-27T09:46:18;1.77;;;1.67;;
3297;SDS011;1661;53.572;10.174;2022-09-27T09:48:48;2.53;;;2.07;;
3297;SDS011;1661;53.572;10.174;2022-09-27T09:51:20;2.13;;;1.90;;
3297;SDS011;1661;53.572;10.174;2022-09-27T09:53:52;4.60;;;1.70;;
3297;SDS011;1661;53.572;10.174;2022-09-27T09:56:23;1.90;;;1.80;;
3297;SDS011;1661;53.572;10.174;2022-09-27T09:58:57;2.00;;;1.80;;
3297;SDS011;1661;53.572;10.174;2022-09-27T10:01:26;4.53;;;1.90;;
3297;SDS011;1661;53.572;10.174;2022-09-27T10:03:58;9.63;;;3.13;;
3297;SDS011;1661;53.572;10.174;2022-09-27T10:06:25;4.23;;;2.43;;
3297;SDS011;1661;53.572;10.174;2022-09-27T10:08:55;9.63;;;2.67;;
3297;SDS011;1661;53.572;10.174;2022-09-27T10:11:22;4.20;;;1.93;;
3297;SDS011;1661;53.572;10.174;2022-09-27T10:13:51;1.67;;;1.57;;
3297;SDS011;1661;53.572;10.174;2022-09-27T10:16:20;2.70;;;1.50;;
3297;SDS011;1661;53.572;10.174;2022-09-27T10:18:48;3.00;;;2.03;;
3297;SDS011;1661;53.572;10.174;2022-09-27T10:21:20;3.60;;;2.57;;
3297;SDS011;1661;53.572;10.174;2022-09-27T10:24:06;3.43;;;3.00;;
3297;SDS011;1661;53.572;10.174;2022-09-27T10:26:36;3.20;;;1.80;;
3297;SDS011;1661;53.572;10.174;2022-09-27T10:31:57;3.43;;;2.23;;
3297;SDS011;1661;53.572;10.174;2022-09-27T10:34:29;2.90;;;1.73;;
3297;SDS011;1661;53.572;10.174;2022-09-27T10:37:14;3.63;;;2.87;;
3297;SDS011;1661;53.572;10.174;2022-09-27T10:39:43;3.87;;;1.57;;
3297;SDS011;1661;53.572;10.174;2022-09-27T10:42:21;5.20;;;2.50;;
3297;SDS011;1661;53.572;10.174;2022-09-27T10:44:56;3.13;;;2.27;;
3297;SDS011;1661;53.572;10.174;2022-09-27T10:47:24;3.83;;;1.70;;
3297;SDS011;1661;53.572;10.174;2022-09-27T10:49:52;4.37;;;2.17;;
3297;SDS011;1661;53.572;10.174;2022-09-27T10:52:30;3.27;;;1.70;;
3297;SDS011;1661;53.572;10.174;2022-09-27T10:54:58;3.80;;;2.47;;
3297;SDS011;1661;53.572;10.174;2022-09-27T10:57:30;2.57;;;2.37;;
3297;SDS011;1661;53.572;10.174;2022-09-27T10:59:58;3.10;;;2.13;;
3297;SDS011;1661;53.572;10.174;2022-09-27T11:02:29;2.33;;;2.13;;
3297;SDS011;1661;53.572;10.174;2022-09-27T11:05:01;3.03;;;2.27;;
3297;SDS011;1661;53.572;10.174;2022-09-27T11:07:30;2.93;;;2.40;;
3297;SDS011;1661;53.572;10.174;2022-09-27T11:09:57;2.70;;;2.00;;
3297;SDS011;1661;53.572;10.174;2022-09-27T11:12:27;2.07;;;1.93;;
3297;SDS011;1661;53.572;10.174;2022-09-27T11:14:56;1.80;;;1.70;;
3297;SDS011;1661;53.572;10.174;2022-09-27T11:17:31;1.93;;;1.73;;
3297;SDS011;1661;53.572;10.174;2022-09-27T11:23:14;1.73;;;1.57;;
3297;SDS011;1661;53.572;10.174;2022-09-27T11:26:09;3.60;;;2.10;;
3297;SDS011;1661;53.572;10.174;2022-09-27T11:28:53;2.00;;;1.80;;
3297;SDS011;1661;53.572;10.174;2022-09-27T11:31:28;1.37;;;1.27;;
3297;SDS011;1661;53.572;10.174;2022-09-27T11:37:02;1.83;;;1.73;;
3297;SDS011;1661;53.572;10.174;2022-09-27T11:39:44;1.70;;;1.60;;
3297;SDS011;1661;53.572;10.174;2022-09-27T11:45:35;2.60;;;1.40;;
3297;SDS011;1661;53.572;10.174;2022-09-27T11:48:15;1.83;;;1.73;;
3297;SDS011;1661;53.572;10.174;2022-09-27T11:51:05;8.57;;;1.90;;
3297;SDS011;1661;53.572;10.174;2022-09-27T11:53:42;2.33;;;1.90;;
3297;SDS011;1661;53.572;10.174;2022-09-27T11:56:25;1.50;;;1.40;;
3297;SDS011;1661;53.572;10.174;2022-09-27T11:59:04;2.20;;;2.00;;
3297;SDS011;1661;53.572;10.174;2022-09-27T12:01:42;1.40;;;1.30;;
3297;SDS011;1661;53.572;10.174;2022-09-27T12:07:23;2.93;;;1.53;;
3297;SDS011;1661;53.572;10.174;2022-09-27T12:09:58;1.63;;;1.53;;
3297;SDS011;1661;53.572;10.174;2022-09-27T12:12:29;1.80;;;1.70;;
3297;SDS011;1661;53.572;10.174;2022-09-27T12:15:00;2.33;;;2.13;;
3297;SDS011;1661;53.572;10.174;2022-09-27T12:17:30;2.27;;;1.63;;
3297;SDS011;1661;53.572;10.174;2022-09-27T12:20:02;2.63;;;1.70;;
3297;SDS011;1661;53.572;10.174;2022-09-27T12:22:35;10.63;;;2.70;;
3297;SDS011;1661;53.572;10.174;2022-09-27T12:25:10;5.30;;;2.37;;
3297;SDS011;1661;53.572;10.174;2022-09-27T12:27:42;4.73;;;1.93;;
3297;SDS011;1661;53.572;10.174;2022-09-27T12:30:12;2.03;;;1.90;;
3297;SDS011;1661;53.572;10.174;2022-09-27T12:32:43;2.77;;;2.57;;
3297;SDS011;1661;53.572;10.174;2022-09-27T12:35:16;1.73;;;1.50;;
3297;SDS011;1661;53.572;10.174;2022-09-27T12:37:48;1.80;;;1.70;;
3297;SDS011;1661;53.572;10.174;2022-09-27T12:40:22;2.30;;;2.10;;
3297;SDS011;1661;53.572;10.174;2022-09-27T12:42:52;2.90;;;1.73;;
3297;SDS011;1661;53.572;10.174;2022-09-27T12:45:26;1.80;;;1.70;;
3297;SDS011;1661;53.572;10.174;2022-09-27T12:48:07;2.00;;;1.80;;
3297;SDS011;1661;53.572;10.174;2022-09-27T12:50:42;1.73;;;1.63;;
3297;SDS011;1661;53.572;10.174;2022-09-27T12:53:12;2.87;;;1.97;;
3297;SDS011;1661;53.572;10.174;2022-09-27T12:55:54;1.67;;;1.57;;
3297;SDS011;1661;53.572;10.174;2022-09-27T12:58:51;1.53;;;1.43;;
3297;SDS011;1661;53.572;10.174;2022-09-27T13:01:39;2.43;;;1.60;;
3297;SDS011;1661;53.572;10.174;2022-09-27T13:04:24;3.07;;;1.40;;
3297;SDS011;1661;53.572;10.174;2022-09-27T13:07:08;3.77;;;1.80;;
3297;SDS011;1661;53.572;10.174;2022-09-27T13:09:59;3.50;;;2.50;;
3297;SDS011;1661;53.572;10.174;2022-09-27T13:12:50;3.30;;;3.00;;
3297;SDS011;1661;53.572;10.174;2022-09-27T13:15:21;3.47;;;2.57;;
3297;SDS011;1661;53.572;10.174;2022-09-27T13:17:53;1.77;;;1.37;;
3297;SDS011;1661;53.572;10.174;2022-09-27T13:20:35;2.70;;;2.10;;
3297;SDS011;1661;53.572;10.174;2022-09-27T13:26:48;3.10;;;2.90;;
3297;SDS011;1661;53.572;10.174;2022-09-27T13:29:29;3.60;;;2.13;;
3297;SDS011;1661;53.572;10.174;2022-09-27T13:32:14;2.10;;;1.70;;
3297;SDS011;1661;53.572;10.174;2022-09-27T13:34:45;1.60;;;1.23;;
3297;SDS011;1661;53.572;10.174;2022-09-27T13:40:22;2.20;;;2.00;;
3297;SDS011;1661;53.572;10.174;2022-09-27T13:43:04;3.00;;;1.73;;
3297;SDS011;1661;53.572;10.174;2022-09-27T13:45:48;2.37;;;2.17;;
3297;SDS011;1661;53.572;10.174;2022-09-27T13:48:21;2.70;;;1.40;;
3297;SDS011;1661;53.572;10.174;2022-09-27T13:50:55;2.07;;;1.87;;
3297;SDS011;1661;53.572;10.174;2022-09-27T13:53:27;2.13;;;1.93;;
3297;SDS011;1661;53.572;10.174;2022-09-27T13:55:56;6.50;;;1.40;;
3297;SDS011;1661;53.572;10.174;2022-09-27T13:58:31;3.90;;;1.53;;
3297;SDS011;1661;53.572;10.174;2022-09-27T14:01:04;2.03;;;1.60;;
3297;SDS011;1661;53.572;10.174;2022-09-27T14:03:37;1.57;;;1.40;;
3297;SDS011;1661;53.572;10.174;2022-09-27T14:06:14;1.50;;;1.23;;
3297;SDS011;1661;53.572;10.174;2022-09-27T14:08:45;1.20;;;1.00;;
3297;SDS011;1661;53.572;10.174;2022-09-27T14:11:16;2.40;;;1.57;;
3297;SDS011;1661;53.572;10.174;2022-09-27T14:13:49;1.70;;;1.23;;
3297;SDS011;1661;53.572;10.174;2022-09-27T14:16:17;2.53;;;1.30;;
3297;SDS011;1661;53.572;10.174;2022-09-27T14:18:46;1.50;;;1.40;;
3297;SDS011;1661;53.572;10.174;2022-09-27T14:21:16;4.03;;;1.10;;
3297;SDS011;1661;53.572;10.174;2022-09-27T14:23:51;3.30;;;1.17;;
3297;SDS011;1661;53.572;10.174;2022-09-27T14:26:21;2.13;;;1.53;;
3297;SDS011;1661;53.572;10.174;2022-09-27T14:28:51;3.27;;;1.60;;
3297;SDS011;1661;53.572;10.174;2022-09-27T14:31:18;2.00;;;1.50;;
3297;SDS011;1661;53.572;10.174;2022-09-27T14:33:47;2.23;;;1.50;;
3297;SDS011;1661;53.572;10.174;2022-09-27T14:36:18;4.50;;;1.73;;
3297;SDS011;1661;53.572;10.174;2022-09-27T14:39:11;2.87;;;1.70;;
3297;SDS011;1661;53.572;10.174;2022-09-27T14:41:46;5.03;;;1.70;;
3297;SDS011;1661;53.572;10.174;2022-09-27T14:44:15;4.20;;;2.30;;
3297;SDS011;1661;53.572;10.174;2022-09-27T14:46:43;2.80;;;1.90;;
3297;SDS011;1661;53.572;10.174;2022-09-27T14:49:15;3.27;;;1.93;;
3297;SDS011;1661;53.572;10.174;2022-09-27T14:51:49;7.00;;;1.90;;
3297;SDS011;1661;53.572;10.174;2022-09-27T14:54:20;3.20;;;1.63;;
3297;SDS011;1661;53.572;10.174;2022-09-27T14:56:50;5.07;;;1.60;;
3297;SDS011;1661;53.572;10.174;2022-09-27T14:59:21;2.20;;;2.00;;
3297;SDS011;1661;53.572;10.174;2022-09-27T15:01:54;3.73;;;2.83;;
3297;SDS011;1661;53.572;10.174;2022-09-27T15:04:24;3.33;;;1.70;;
3297;SDS011;1661;53.572;10.174;2022-09-27T15:06:52;3.17;;;2.00;;
3297;SDS011;1661;53.572;10.174;2022-09-27T15:09:20;1.60;;;1.50;;
3297;SDS011;1661;53.572;10.174;2022-09-27T15:11:48;3.50;;;2.40;;
3297;SDS011;1661;53.572;10.174;2022-09-27T15:14:19;2.70;;;2.30;;
3297;SDS011;1661;53.572;10.174;2022-09-27T15:16:47;3.77;;;2.47;;
3297;SDS011;1661;53.572;10.174;2022-09-27T15:19:16;3.07;;;2.73;;
3297;SDS011;1661;53.572;10.174;2022-09-27T15:21:48;4.17;;;3.10;;
3297;SDS011;1661;53.572;10.174;2022-09-27T15:27:01;10.60;;;2.83;;
3297;SDS011;1661;53.572;10.174;2022-09-27T15:29:29;2.70;;;2.50;;
3297;SDS011;1661;53.572;10.174;2022-09-27T15:31:57;6.03;;;5.47;;
3297;SDS011;1661;53.572;10.174;2022-09-27T15:34:24;6.37;;;5.80;;
3297;SDS011;1661;53.572;10.174;2022-09-27T15:36:54;3.53;;;2.60;;
3297;SDS011;1661;53.572;10.174;2022-09-27T15:39:27;4.37;;;4.07;;
3297;SDS011;1661;53.572;10.174;2022-09-27T15:44:45;2.97;;;2.77;;
3297;SDS011;1661;53.572;10.174;2022-09-27T15:50:33;3.60;;;3.33;;
3297;SDS011;1661;53.572;10.174;2022-09-27T15:53:01;2.20;;;2.10;;
3297;SDS011;1661;53.572;10.174;2022-09-27T15:55:30;2.30;;;2.10;;
3297;SDS011;1661;53.572;10.174;2022-09-27T15:57:59;2.97;;;2.07;;
3297;SDS011;1661;53.572;10.174;2022-09-27T16:00:29;2.97;;;2.77;;
3297;SDS011;1661;53.572;10.174;2022-09-27T16:02:56;2.03;;;1.63;;